Terminal Aerodrome Forecast
Issued by NWS Huntsville, AL

Home | Current Version | Previous Version | Text Only | Print | Product List | Glossary On
Versions: 1 2 3 4 5 6 7 8 9 10 11 12 13 14 15 16 17 18 19
000
FTUS44 KHUN 222327
TAFMSL
TAF
KMSL 222327Z 2300/2324 27012G17KT 6SM -SHRA SCT010 OVC025
      TEMPO 2300/2301 4SM SHRA BKN010 OVC015
     FM230200 30015G22KT 6SM -RA OVC009
     FM230700 32018G28KT P6SM OVC015=

USA.gov is the U.S. government's official web portal to all federal, state and local government web resources and services.